Time;durP1;ratioP1;P1;durP2;ratioP2;P2;SDS_P1;SDS_P2;PMS_P1;PMS_P2;Temp;Humidity;BMP_temperature;BMP_pressure;BME280_temperature;BME280_humidity;BME280_pressure;Samples;Min_cycle;Max_cycle;Signal;HPM_P1;HPM_P2
2023/12/22 00:00:08;;;;;;;8.45;1.90;;;7.40;99.90;;;;;;5061760;28;20023;-92
2023/12/22 00:02:33;;;;;;;6.38;1.50;;;7.40;99.90;;;;;;5068448;28;20483;-91
2023/12/22 00:05:02;;;;;;;12.65;2.60;;;7.40;99.90;;;;;;5042880;28;20025;-93
2023/12/22 00:07:28;;;;;;;8.95;1.67;;;7.40;99.90;;;;;;5043210;28;20391;-93
2023/12/22 00:09:54;;;;;;;9.57;2.33;;;7.40;99.90;;;;;;5093817;28;20024;-94
2023/12/22 00:12:20;;;;;;;15.23;3.25;;;7.40;99.90;;;;;;5093643;28;20016;-93
2023/12/22 00:14:45;;;;;;;10.90;2.38;;;7.50;99.90;;;;;;5058917;28;20048;-92
2023/12/22 00:17:14;;;;;;;11.30;1.95;;;7.50;99.90;;;;;;5043134;28;20033;-94
2023/12/22 00:19:42;;;;;;;10.20;2.22;;;7.50;99.90;;;;;;5038742;28;20024;-93
2023/12/22 00:22:10;;;;;;;11.50;2.40;;;7.50;99.90;;;;;;5077407;28;20024;-92
2023/12/22 00:24:36;;;;;;;8.57;2.00;;;7.60;99.90;;;;;;5074988;28;20048;-93
2023/12/22 00:27:04;;;;;;;9.52;2.33;;;7.60;99.90;;;;;;5039744;28;20040;-94
2023/12/22 00:29:30;;;;;;;4.70;1.48;;;7.50;99.90;;;;;;5035001;28;20039;-92
2023/12/22 00:31:55;;;;;;;6.75;1.40;;;7.40;99.90;;;;;;5042940;28;20028;-90
2023/12/22 00:34:26;;;;;;;8.80;1.65;;;7.40;99.90;;;;;;5056751;28;20017;-94
2023/12/22 00:36:54;;;;;;;8.88;1.85;;;7.40;99.90;;;;;;5059767;28;20070;-92
2023/12/22 00:39:22;;;;;;;7.28;1.48;;;7.30;99.90;;;;;;5043310;28;20036;-93
2023/12/22 00:41:50;;;;;;;6.53;1.17;;;7.20;99.90;;;;;;5052011;28;20036;-92
2023/12/22 00:44:16;;;;;;;5.15;1.30;;;7.10;99.90;;;;;;5076134;28;20419;-93
2023/12/22 00:46:44;;;;;;;4.35;1.05;;;7.00;99.90;;;;;;5048836;28;20029;-92
2023/12/22 00:49:12;;;;;;;6.60;1.40;;;7.00;99.90;;;;;;5040354;28;20481;-92
2023/12/22 00:51:40;;;;;;;4.95;1.05;;;7.00;99.90;;;;;;5040130;28;20020;-93
2023/12/22 00:54:05;;;;;;;4.43;1.23;;;7.00;99.90;;;;;;5040907;28;20051;-92
2023/12/22 00:56:31;;;;;;;6.30;1.63;;;7.00;99.90;;;;;;5061476;28;20009;-92
2023/12/22 00:58:59;;;;;;;2.97;0.85;;;7.00;99.90;;;;;;5081575;28;20024;-91
2023/12/22 01:01:27;;;;;;;8.73;1.30;;;7.00;99.90;;;;;;5053790;28;20503;-90
2023/12/22 01:03:56;;;;;;;6.55;1.02;;;7.00;99.90;;;;;;5047450;28;20029;-92
2023/12/22 01:06:24;;;;;;;4.28;1.08;;;6.90;99.90;;;;;;5039769;28;20021;-94
2023/12/22 01:08:50;;;;;;;5.35;1.48;;;6.90;99.90;;;;;;5038389;28;20045;-93
2023/12/22 01:11:17;;;;;;;6.13;1.10;;;6.90;99.90;;;;;;5042921;28;20136;-94
2023/12/22 01:13:43;;;;;;;5.70;0.90;;;6.90;99.90;;;;;;5058804;28;20048;-94
2023/12/22 01:16:09;;;;;;;6.60;1.20;;;6.80;99.90;;;;;;5058187;28;20027;-92
2023/12/22 01:18:35;;;;;;;5.30;1.52;;;6.80;99.90;;;;;;5092412;28;20024;-94
2023/12/22 01:21:01;;;;;;;4.57;1.08;;;6.80;99.90;;;;;;5040461;28;20040;-94
2023/12/22 01:23:26;;;;;;;2.72;1.00;;;6.90;99.90;;;;;;5056224;28;20021;-92
2023/12/22 01:25:57;;;;;;;5.60;1.15;;;6.90;99.90;;;;;;5021909;28;20040;-92
2023/12/22 01:28:22;;;;;;;5.13;1.15;;;6.80;99.90;;;;;;5038949;28;20036;-93
2023/12/22 01:30:53;;;;;;;3.10;1.25;;;6.90;99.90;;;;;;5059999;28;20020;-95
2023/12/22 01:33:18;;;;;;;5.50;1.05;;;6.90;99.90;;;;;;5045755;28;20035;-93
2023/12/22 01:35:44;;;;;;;6.15;1.13;;;6.80;99.90;;;;;;5084962;28;20104;-92
2023/12/22 01:38:12;;;;;;;4.93;1.60;;;6.90;99.90;;;;;;5071480;28;20033;-92
2023/12/22 01:40:38;;;;;;;2.53;0.95;;;6.90;99.90;;;;;;5073157;28;20095;-95
2023/12/22 01:43:04;;;;;;;7.63;1.60;;;6.80;99.90;;;;;;5058616;28;20024;-94
2023/12/22 01:45:32;;;;;;;7.38;1.35;;;6.90;99.90;;;;;;5054666;28;20024;-94
2023/12/22 01:48:04;;;;;;;6.55;1.52;;;6.90;99.90;;;;;;5041429;28;20061;-94
2023/12/22 01:50:33;;;;;;;5.68;1.33;;;6.90;99.90;;;;;;5041476;28;20024;-94
2023/12/22 01:53:01;;;;;;;4.40;1.40;;;7.00;99.90;;;;;;5066305;28;20035;-92
2023/12/22 01:55:30;;;;;;;8.90;1.70;;;7.00;99.90;;;;;;5037705;28;20033;-95
2023/12/22 01:57:56;;;;;;;5.85;1.30;;;7.00;99.90;;;;;;5022031;28;20048;-93
2023/12/22 02:00:29;;;;;;;5.35;1.50;;;7.00;99.90;;;;;;5039170;28;20028;-93
2023/12/22 02:02:55;;;;;;;3.72;1.13;;;7.00;99.90;;;;;;5058351;28;20050;-94
2023/12/22 02:05:21;;;;;;;6.28;1.60;;;7.00;99.90;;;;;;5052894;28;20456;-94
2023/12/22 02:07:49;;;;;;;7.47;1.77;;;7.10;99.90;;;;;;5046798;28;20048;-94
2023/12/22 02:10:18;;;;;;;12.43;2.40;;;7.00;99.90;;;;;;5057741;28;20020;-93
2023/12/22 02:12:46;;;;;;;13.25;2.17;;;7.00;99.90;;;;;;5092341;28;20016;-94
2023/12/22 02:15:16;;;;;;;8.73;1.75;;;7.00;99.90;;;;;;5058456;28;20020;-94
2023/12/22 02:17:55;;;;;;;9.02;1.58;;;7.00;99.90;;;;;;5058598;28;20473;-94
2023/12/22 02:20:22;;;;;;;7.38;1.77;;;7.00;99.90;;;;;;5064406;28;20080;-89
2023/12/22 02:22:52;;;;;;;10.15;1.98;;;7.00;99.90;;;;;;5108763;28;20032;-90
2023/12/22 02:25:18;;;;;;;10.60;1.73;;;7.00;99.90;;;;;;5070041;28;20033;-90
2023/12/22 02:27:57;;;;;;;7.53;1.98;;;7.10;99.90;;;;;;5084948;28;20032;-89
2023/12/22 02:30:34;;;;;;;9.60;1.67;;;7.10;99.90;;;;;;5073227;28;20068;-91
2023/12/22 02:33:03;;;;;;;7.97;2.17;;;7.20;99.90;;;;;;5067265;28;20035;-91
2023/12/22 02:35:32;;;;;;;9.02;2.35;;;7.20;99.90;;;;;;5054941;28;20048;-91
2023/12/22 02:38:00;;;;;;;8.13;2.15;;;7.20;99.90;;;;;;5043757;28;20029;-91
2023/12/22 02:40:26;;;;;;;9.90;1.83;;;7.30;99.90;;;;;;5056966;28;20460;-89
2023/12/22 02:42:53;;;;;;;9.25;1.50;;;7.30;99.90;;;;;;5052007;28;20032;-89
2023/12/22 02:45:19;;;;;;;8.68;1.90;;;7.30;99.90;;;;;;5056566;28;20024;-91
2023/12/22 02:47:53;;;;;;;8.40;2.00;;;7.40;99.90;;;;;;5048586;28;20064;-91
2023/12/22 02:50:24;;;;;;;11.40;2.97;;;7.40;99.90;;;;;;5084418;28;20029;-91
2023/12/22 02:52:50;;;;;;;8.85;1.90;;;7.40;99.90;;;;;;5027666;28;20033;-91
2023/12/22 02:55:16;;;;;;;9.27;1.98;;;7.40;99.90;;;;;;5053624;28;20433;-93
2023/12/22 02:57:42;;;;;;;9.90;2.45;;;7.40;99.90;;;;;;5052806;28;20052;-93
2023/12/22 03:00:08;;;;;;;9.63;2.13;;;7.40;99.90;;;;;;5037156;28;20057;-92
2023/12/22 03:02:34;;;;;;;7.90;1.95;;;7.40;99.90;;;;;;5029258;28;20499;-92
2023/12/22 03:04:59;;;;;;;6.47;2.03;;;7.40;99.90;;;;;;5053276;28;20032;-92
2023/12/22 03:07:25;;;;;;;11.07;2.28;;;7.40;99.90;;;;;;5026583;28;20072;-93
2023/12/22 03:09:51;;;;;;;13.27;3.10;;;7.40;99.90;;;;;;5036416;28;20115;-92
2023/12/22 03:12:17;;;;;;;10.45;2.53;;;7.40;99.90;;;;;;5046037;28;20116;-91
2023/12/22 03:14:43;;;;;;;9.43;2.30;;;7.40;99.90;;;;;;5053675;28;20419;-93
2023/12/22 03:17:10;;;;;;;10.00;2.92;;;7.30;99.90;;;;;;5044754;28;20082;-91
2023/12/22 03:19:36;;;;;;;16.23;2.88;;;7.30;99.90;;;;;;5066969;28;20107;-94
2023/12/22 03:22:07;;;;;;;11.35;2.63;;;7.30;99.90;;;;;;5037728;28;20457;-91
2023/12/22 03:24:37;;;;;;;16.45;3.17;;;7.30;99.90;;;;;;5053676;28;20115;-93
2023/12/22 03:27:08;;;;;;;14.07;3.33;;;7.30;99.90;;;;;;5034167;28;20025;-92
2023/12/22 03:29:51;;;;;;;;;;;7.30;99.90;;;;;;5036580;28;20034;-92
2023/12/22 03:32:19;;;;;;;19.42;4.07;;;7.30;99.90;;;;;;5070694;28;19912;-92
2023/12/22 03:34:45;;;;;;;18.80;3.50;;;7.20;99.90;;;;;;5057233;28;20029;-92
2023/12/22 03:37:15;;;;;;;14.68;3.13;;;7.20;99.90;;;;;;5056574;28;20119;-91
2023/12/22 03:39:43;;;;;;;14.33;2.87;;;7.20;99.90;;;;;;5058023;28;20453;-92
2023/12/22 03:42:09;;;;;;;9.48;2.38;;;7.20;99.90;;;;;;5044511;28;20025;-92
2023/12/22 03:44:35;;;;;;;10.73;2.35;;;7.10;99.90;;;;;;5066274;28;20029;-90
2023/12/22 03:47:01;;;;;;;6.68;2.13;;;7.00;99.90;;;;;;5080192;28;20085;-90
2023/12/22 03:49:26;;;;;;;13.57;2.47;;;7.00;99.90;;;;;;5079327;28;20063;-88
2023/12/22 03:51:52;;;;;;;9.10;2.70;;;6.90;99.90;;;;;;5074534;28;20041;-92
2023/12/22 03:54:18;;;;;;;12.30;2.78;;;6.90;99.90;;;;;;5046633;28;20025;-87
2023/12/22 03:56:44;;;;;;;7.90;1.67;;;6.80;99.90;;;;;;5054796;28;20036;-94
2023/12/22 03:59:19;;;;;;;7.18;2.00;;;6.70;99.90;;;;;;5056955;28;20021;-92
2023/12/22 04:01:52;;;;;;;6.10;1.48;;;6.60;99.90;;;;;;5057664;28;20033;-94
2023/12/22 04:04:17;;;;;;;9.10;1.73;;;6.50;99.90;;;;;;5057965;28;20021;-93
2023/12/22 04:06:43;;;;;;;7.32;1.63;;;6.40;99.90;;;;;;5034499;28;20078;-92
2023/12/22 04:09:11;;;;;;;6.30;1.60;;;6.40;99.90;;;;;;5036618;28;20017;-93
2023/12/22 04:11:37;;;;;;;5.30;1.20;;;6.20;99.90;;;;;;5053292;28;20021;-92
2023/12/22 04:14:03;;;;;;;8.02;1.48;;;6.20;99.90;;;;;;5043907;28;20485;-91
2023/12/22 04:16:31;;;;;;;6.68;1.30;;;6.20;99.90;;;;;;5056370;28;20021;-93
2023/12/22 04:18:57;;;;;;;7.53;1.40;;;6.20;99.90;;;;;;5055780;28;20021;-92
2023/12/22 04:21:22;;;;;;;6.57;1.77;;;6.10;99.90;;;;;;5056118;28;20530;-91
2023/12/22 04:23:48;;;;;;;8.57;1.52;;;6.20;99.90;;;;;;5029171;28;20029;-93
2023/12/22 04:26:14;;;;;;;4.25;1.05;;;6.20;99.90;;;;;;5043492;28;20041;-91
2023/12/22 04:28:40;;;;;;;6.10;1.27;;;6.20;99.90;;;;;;5055942;28;20040;-93
2023/12/22 04:31:06;;;;;;;8.75;1.40;;;6.20;99.90;;;;;;5056407;28;20025;-92
2023/12/22 04:33:32;;;;;;;3.38;1.13;;;6.30;99.90;;;;;;5057508;28;20025;-92
2023/12/22 04:35:58;;;;;;;3.47;1.15;;;6.30;99.90;;;;;;5039538;28;20392;-92
2023/12/22 04:38:24;;;;;;;6.78;1.30;;;6.40;99.90;;;;;;5055829;28;20025;-88
2023/12/22 04:40:49;;;;;;;6.13;1.15;;;6.40;99.90;;;;;;5052569;28;20052;-93
2023/12/22 04:43:17;;;;;;;6.78;1.27;;;6.50;99.90;;;;;;5040323;28;20053;-92
2023/12/22 04:45:46;;;;;;;7.75;1.38;;;6.50;99.90;;;;;;5034942;28;20124;-93
2023/12/22 04:48:11;;;;;;;8.05;1.40;;;6.50;99.90;;;;;;5065527;28;20053;-89
2023/12/22 04:50:37;;;;;;;6.72;1.48;;;6.60;99.90;;;;;;5056270;28;20025;-91
2023/12/22 04:53:03;;;;;;;7.13;1.63;;;6.70;99.90;;;;;;5048357;28;20410;-91
2023/12/22 04:55:29;;;;;;;8.25;1.55;;;6.70;99.90;;;;;;5036564;28;20444;-90
2023/12/22 04:57:54;;;;;;;9.75;1.60;;;6.80;99.90;;;;;;5037066;28;20385;-90
2023/12/22 05:00:20;;;;;;;7.93;1.83;;;6.80;99.90;;;;;;5021175;28;20485;-90
2023/12/22 05:02:46;;;;;;;9.88;2.10;;;6.80;99.90;;;;;;5037299;28;20036;-93
2023/12/22 05:05:11;;;;;;;10.73;2.05;;;6.90;99.90;;;;;;5026958;28;20079;-91
2023/12/22 05:07:38;;;;;;;6.63;1.88;;;6.90;99.90;;;;;;5067183;28;20040;-93
2023/12/22 05:10:09;;;;;;;8.00;1.75;;;7.00;99.90;;;;;;5074871;28;20017;-91
2023/12/22 05:12:37;;;;;;;9.68;2.10;;;7.00;99.90;;;;;;5078070;28;20011;-88
2023/12/22 05:15:08;;;;;;;11.93;2.63;;;7.00;99.90;;;;;;5068969;28;20036;-91
2023/12/22 05:18:06;;;;;;;;;;;;;;;;;;;;;
2023/12/22 05:20:35;;;;;;;8.57;1.75;;;7.10;99.90;;;;;;5037343;28;20032;-90
2023/12/22 05:23:01;;;;;;;10.02;2.33;;;7.10;99.90;;;;;;5035525;28;20044;-90
2023/12/22 05:25:27;;;;;;;11.30;2.60;;;7.20;99.90;;;;;;5035425;28;20465;-91
2023/12/22 05:27:52;;;;;;;10.20;2.17;;;7.20;99.90;;;;;;5036091;28;20112;-91
2023/12/22 05:30:18;;;;;;;12.80;2.22;;;7.20;99.90;;;;;;5035558;28;20029;-89
2023/12/22 05:32:54;;;;;;;8.68;1.85;;;7.30;99.90;;;;;;5052861;28;20021;-91
2023/12/22 05:35:22;;;;;;;10.50;1.85;;;7.30;99.90;;;;;;5063120;28;20025;-90
2023/12/22 05:37:48;;;;;;;8.65;2.20;;;7.30;99.90;;;;;;5056787;28;20079;-92
2023/12/22 05:40:18;;;;;;;7.55;1.88;;;7.30;99.90;;;;;;5040934;28;20461;-92
2023/12/22 05:42:44;;;;;;;7.25;1.95;;;7.30;99.90;;;;;;5055003;28;20135;-95
2023/12/22 05:45:13;;;;;;;8.10;2.08;;;7.30;99.90;;;;;;5051114;28;20029;-92
2023/12/22 05:47:41;;;;;;;8.98;1.67;;;7.40;99.90;;;;;;5054209;28;20080;-93
2023/12/22 05:50:13;;;;;;;8.18;1.80;;;7.40;99.90;;;;;;5054645;28;20032;-94
2023/12/22 05:52:41;;;;;;;8.18;1.85;;;7.50;99.90;;;;;;5056481;28;20029;-95
2023/12/22 05:55:12;;;;;;;8.18;2.05;;;7.50;99.90;;;;;;5056959;28;20056;-93
2023/12/22 05:57:38;;;;;;;11.63;2.38;;;7.50;99.90;;;;;;5037592;28;20120;-93
2023/12/22 06:00:19;;;;;;;;;;;;;;;;;;;;;
2023/12/22 06:02:45;;;;;;;12.52;2.85;;;7.60;99.90;;;;;;5046061;28;20056;-94
2023/12/22 06:05:21;;;;;;;11.45;2.72;;;7.50;99.90;;;;;;5038282;28;20548;-93
2023/12/22 06:07:50;;;;;;;10.13;2.72;;;7.60;99.90;;;;;;5049941;28;20087;-94
2023/12/22 06:10:25;;;;;;;12.98;2.20;;;7.60;99.90;;;;;;5034558;28;20047;-96
2023/12/22 06:13:00;;;;;;;9.13;2.47;;;7.60;99.90;;;;;;5044550;28;20036;-93
2023/12/22 06:15:26;;;;;;;12.52;3.15;;;7.60;99.90;;;;;;5236531;22;20110;-91
2023/12/22 06:18:16;;;;;;;13.57;3.30;;;7.60;99.90;;;;;;5175817;22;20073;-95
2023/12/22 06:20:43;;;;;;;13.27;2.63;;;7.60;99.90;;;;;;5024905;28;20087;-94
2023/12/22 06:23:09;;;;;;;9.52;2.25;;;7.60;99.90;;;;;;4993747;28;20079;-93
2023/12/22 06:25:37;;;;;;;10.45;2.47;;;7.70;99.90;;;;;;5034190;28;20089;-94
2023/12/22 06:28:21;;;;;;;12.60;2.63;;;7.70;99.90;;;;;;5033513;28;20036;-95
2023/12/22 06:30:47;;;;;;;9.90;2.20;;;7.70;99.90;;;;;;5034926;28;20030;-93
2023/12/22 06:33:15;;;;;;;14.02;2.70;;;7.70;99.90;;;;;;5019543;28;20076;-94
2023/12/22 06:40:51;;;;;;;13.70;2.63;;;7.80;99.90;;;;;;1106976;22;20314;-89
2023/12/22 06:43:17;;;;;;;9.60;2.20;;;7.80;99.90;;;;;;5088709;28;20028;-92
2023/12/22 06:45:45;;;;;;;9.85;2.58;;;7.90;99.90;;;;;;5064249;28;20092;-93
2023/12/22 06:48:17;;;;;;;12.38;2.63;;;7.90;99.90;;;;;;5057344;28;20031;-92
2023/12/22 06:50:45;;;;;;;;;;;8.00;99.90;;;;;;5071016;28;20040;-92
2023/12/22 06:53:14;;;;;;;13.48;2.53;;;8.00;99.90;;;;;;5075537;28;20006;-93
2023/12/22 06:55:53;;;;;;;11.88;2.55;;;8.00;99.90;;;;;;5077249;28;20019;-93
2023/12/22 06:58:21;;;;;;;11.98;2.38;;;8.00;99.90;;;;;;5065810;28;20086;-92
2023/12/22 07:00:51;;;;;;;13.68;3.38;;;8.00;99.90;;;;;;5076667;28;20464;-93
2023/12/22 07:03:34;;;;;;;16.70;3.13;;;8.10;99.90;;;;;;5079450;28;20043;-94
2023/12/22 07:14:11;;;;;;;11.32;2.90;;;8.20;99.90;;;;;;5044530;28;20061;-93
2023/12/22 07:16:44;;;;;;;14.10;2.97;;;8.20;99.90;;;;;;5035048;28;20034;-94
2023/12/22 07:19:35;;;;;;;11.02;3.03;;;8.20;99.90;;;;;;5037867;28;20045;-94
2023/12/22 07:22:07;;;;;;;13.15;3.10;;;8.30;99.90;;;;;;5038733;28;20025;-92
2023/12/22 07:24:49;;;;;;;14.68;3.63;;;8.30;99.90;;;;;;5033978;28;20136;-90
2023/12/22 07:27:18;;;;;;;19.10;3.95;;;8.30;99.90;;;;;;5024919;28;20048;-91
2023/12/22 07:29:51;;;;;;;19.05;4.28;;;8.30;99.90;;;;;;5021734;28;20052;-94
2023/12/22 07:32:24;;;;;;;16.48;4.10;;;8.30;99.90;;;;;;5018817;28;20030;-91
2023/12/22 07:35:34;;;;;;;16.35;4.10;;;8.30;99.90;;;;;;5244822;22;20668;-91
2023/12/22 07:38:39;;;;;;;;;;;;;;;;;;;;;
2023/12/22 07:41:33;;;;;;;22.63;3.95;;;8.40;99.90;;;;;;5067339;28;20457;-94
2023/12/22 07:44:01;;;;;;;19.73;3.72;;;8.40;99.90;;;;;;5042526;28;20041;-93
2023/12/22 07:46:49;;;;;;;23.70;4.53;;;8.40;99.90;;;;;;5049862;28;20016;-94
2023/12/22 07:49:23;;;;;;;20.50;5.43;;;8.50;99.90;;;;;;5031665;28;20052;-93
2023/12/22 07:51:52;;;;;;;17.27;3.95;;;8.50;99.90;;;;;;5022922;28;20033;-90
2023/12/22 07:54:18;;;;;;;19.27;4.75;;;8.50;99.90;;;;;;5044774;28;20024;-93
2023/12/22 07:56:44;;;;;;;17.83;4.32;;;8.50;99.90;;;;;;5050107;28;20021;-95
2023/12/22 07:59:11;;;;;;;19.67;4.13;;;8.60;99.90;;;;;;5082491;22;20167;-92
2023/12/22 08:01:39;;;;;;;22.75;6.07;;;8.60;99.90;;;;;;5076252;28;20032;-92
2023/12/22 08:04:05;;;;;;;21.42;5.18;;;8.70;99.90;;;;;;5091301;28;20032;-93
2023/12/22 08:06:31;;;;;;;28.08;5.35;;;8.70;99.90;;;;;;5108383;28;20070;-91
2023/12/22 08:08:59;;;;;;;21.88;4.72;;;8.60;99.90;;;;;;5109413;28;20032;-91
2023/12/22 08:11:25;;;;;;;23.02;5.32;;;8.70;99.90;;;;;;5074889;28;20020;-94
2023/12/22 08:13:51;;;;;;;28.25;5.55;;;8.70;99.90;;;;;;5082467;28;20020;-88
2023/12/22 08:16:32;;;;;;;;;;;;;;;;;;;;;
2023/12/22 08:18:58;;;;;;;27.73;6.15;;;8.70;99.90;;;;;;5098284;28;20103;-89
2023/12/22 08:21:49;;;;;;;17.75;4.22;;;8.70;99.90;;;;;;5077052;28;20054;-93
2023/12/22 08:24:54;;;;;;;;;;;;;;;;;;;;;
2023/12/22 08:27:20;;;;;;;17.52;4.50;;;8.60;99.90;;;;;;5062530;28;20096;-93
2023/12/22 08:29:45;;;;;;;16.50;4.15;;;8.60;99.90;;;;;;5084776;28;20046;-93
2023/12/22 08:32:27;;;;;;;;;;;;;;;;;;;;;
2023/12/22 08:35:30;;;;;;;15.70;4.00;;;8.50;99.90;;;;;;5109867;22;20149;-95
2023/12/22 08:38:18;;;;;;;19.77;3.78;;;8.50;99.90;;;;;;4991366;28;20044;-94
2023/12/22 08:41:06;;;;;;;19.23;4.00;;;8.50;99.90;;;;;;5043336;28;20030;-93
2023/12/22 08:46:20;;;;;;;24.15;4.53;;;8.50;99.90;;;;;;5811403;22;20081;-91
2023/12/22 08:48:59;;;;;;;21.52;5.35;;;8.50;99.90;;;;;;5699862;22;20264;-88
2023/12/22 08:51:27;;;;;;;23.88;5.40;;;8.50;99.90;;;;;;5053296;28;20386;-87
2023/12/22 08:53:56;;;;;;;25.38;5.55;;;8.60;99.90;;;;;;5017873;28;20133;-92
2023/12/22 08:56:26;;;;;;;24.83;5.13;;;8.60;99.90;;;;;;5055314;28;20147;-92
2023/12/22 08:59:01;;;;;;;15.65;3.60;;;8.60;99.90;;;;;;5056359;28;20025;-92
2023/12/22 09:01:30;;;;;;;19.02;3.10;;;8.60;99.90;;;;;;5056073;28;20036;-93
2023/12/22 09:03:56;;;;;;;13.85;3.95;;;8.60;99.90;;;;;;5035420;28;20334;-94
2023/12/22 09:09:41;;;;;;;16.15;3.60;;;8.70;99.90;;;;;;5118313;22;20060;-94
2023/12/22 09:15:00;;;;;;;11.02;2.72;;;8.70;99.90;;;;;;5015917;23;20058;-94
2023/12/22 09:17:34;;;;;;;10.00;2.58;;;8.70;99.90;;;;;;5034328;28;20057;-93
2023/12/22 09:20:03;;;;;;;10.00;2.50;;;8.70;99.90;;;;;;5011640;28;20024;-94
2023/12/22 09:22:31;;;;;;;9.57;2.20;;;8.70;99.90;;;;;;5018792;28;20067;-91
2023/12/22 09:24:58;;;;;;;8.90;2.30;;;8.80;99.90;;;;;;5018101;28;20034;-93
2023/12/22 09:27:30;;;;;;;7.95;2.47;;;8.80;99.90;;;;;;5010451;28;20061;-93
2023/12/22 09:29:55;;;;;;;13.55;3.17;;;8.80;99.90;;;;;;5002707;28;20418;-93
2023/12/22 09:32:21;;;;;;;11.02;2.70;;;8.80;99.90;;;;;;5025754;28;20017;-89
2023/12/22 09:34:59;;;;;;;;;;;;;;;;;;;;;
2023/12/22 09:37:34;;;;;;;15.32;3.30;;;8.90;99.90;;;;;;5314118;22;20048;-90
2023/12/22 09:40:11;;;;;;;13.95;4.00;;;8.90;99.90;;;;;;5088229;28;20036;-90
2023/12/22 09:42:40;;;;;;;14.07;3.17;;;8.90;99.90;;;;;;5093619;28;20422;-92
2023/12/22 09:45:13;;;;;;;12.80;3.08;;;9.00;99.90;;;;;;5093662;28;20069;-93
2023/12/22 09:47:43;;;;;;;9.73;2.25;;;9.00;99.90;;;;;;5095504;28;20027;-91
2023/12/22 09:50:14;;;;;;;5.65;1.63;;;9.00;99.90;;;;;;5098957;28;20024;-94
2023/12/22 09:52:45;;;;;;;5.65;1.25;;;9.00;99.90;;;;;;5074523;28;20028;-93
2023/12/22 09:55:13;;;;;;;2.60;0.70;;;8.90;99.90;;;;;;5065276;28;20032;-94
2023/12/22 09:57:39;;;;;;;3.75;0.70;;;8.90;99.90;;;;;;5084665;28;20051;-93
2023/12/22 10:00:10;;;;;;;4.50;0.80;;;8.80;99.90;;;;;;5092170;28;20103;-93
2023/12/22 10:02:44;;;;;;;2.10;0.80;;;8.70;99.90;;;;;;5081765;28;20108;-92
2023/12/22 10:05:17;;;;;;;3.17;0.98;;;8.60;99.90;;;;;;5088053;28;20418;-92
2023/12/22 10:07:48;;;;;;;2.70;0.65;;;8.60;99.90;;;;;;5089758;28;20484;-90
2023/12/22 10:10:21;;;;;;;2.13;0.43;;;8.50;99.90;;;;;;5090441;28;20027;-95
2023/12/22 10:13:15;;;;;;;3.25;0.45;;;8.50;99.90;;;;;;5064298;28;20114;-94
2023/12/22 10:16:14;;;;;;;2.67;0.82;;;8.50;99.90;;;;;;5129388;22;20004;-87
2023/12/22 10:18:46;;;;;;;1.75;0.70;;;8.50;99.90;;;;;;5069002;23;20563;-94
2023/12/22 10:21:12;;;;;;;1.90;0.98;;;8.50;99.90;;;;;;5036013;28;20033;-93
2023/12/22 10:26:24;;;;;;;4.18;1.20;;;8.60;99.90;;;;;;5415027;22;20061;-93
2023/12/22 10:28:50;;;;;;;8.13;1.70;;;8.60;99.90;;;;;;5037461;28;20032;-92
2023/12/22 10:31:20;;;;;;;4.38;1.25;;;8.70;99.90;;;;;;5040389;28;20021;-93
2023/12/22 10:33:48;;;;;;;4.63;1.60;;;8.70;99.90;;;;;;5040763;28;20465;-94
2023/12/22 10:36:14;;;;;;;6.65;1.55;;;8.80;99.90;;;;;;5037081;28;20025;-95
2023/12/22 10:38:40;;;;;;;7.13;1.70;;;8.80;99.90;;;;;;5040093;28;20056;-93
2023/12/22 10:41:09;;;;;;;5.65;1.70;;;8.90;99.90;;;;;;5038375;28;20354;-92
2023/12/22 10:43:51;;;;;;;;;;;;;;;;;;;;;
2023/12/22 10:46:22;;;;;;;9.00;2.58;;;9.10;99.90;;;;;;5048482;28;20469;-94
2023/12/22 10:49:01;;;;;;;7.40;1.85;;;9.10;99.90;;;;;;5042629;28;20032;-95
2023/12/22 10:51:26;;;;;;;5.95;1.60;;;9.20;99.90;;;;;;5057912;28;20037;-93
2023/12/22 10:53:52;;;;;;;6.60;2.15;;;9.20;99.90;;;;;;5037107;28;20063;-93
2023/12/22 10:56:28;;;;;;;7.07;1.80;;;9.30;99.90;;;;;;5056394;28;20476;-93
2023/12/22 10:58:58;;;;;;;6.72;2.17;;;9.30;99.90;;;;;;5038665;28;20037;-95
2023/12/22 11:01:41;;;;;;;4.82;1.60;;;9.40;99.90;;;;;;5058599;28;20021;-96
2023/12/22 11:04:13;;;;;;;8.45;1.27;;;9.40;99.90;;;;;;5055563;28;20140;-94
2023/12/22 11:06:44;;;;;;;4.95;1.30;;;9.40;99.90;;;;;;5068627;28;20029;-94
2023/12/22 11:09:50;;;;;;;8.85;1.77;;;9.50;99.90;;;;;;5065327;28;20036;-94
2023/12/22 11:12:28;;;;;;;6.22;1.52;;;9.50;99.90;;;;;;5049120;28;20032;-95
2023/12/22 11:14:59;;;;;;;6.78;1.45;;;9.50;99.90;;;;;;5027159;28;20037;-94
2023/12/22 11:17:52;;;;;;;5.35;1.38;;;9.60;99.90;;;;;;5047562;28;20083;-92
2023/12/22 11:23:09;;;;;;;6.22;1.52;;;9.60;99.90;;;;;;5213289;22;20061;-95
2023/12/22 11:25:38;;;;;;;5.35;1.60;;;9.70;99.90;;;;;;5048885;28;20029;-92
2023/12/22 11:28:24;;;;;;;4.75;1.40;;;9.70;99.90;;;;;;5037559;28;20029;-94
2023/12/22 11:30:57;;;;;;;7.30;2.17;;;9.70;99.90;;;;;;5039292;28;20040;-95
2023/12/22 11:34:03;;;;;;;5.80;1.48;;;9.80;99.90;;;;;;5041171;28;20029;-95
2023/12/22 11:36:34;;;;;;;6.35;1.38;;;9.80;99.90;;;;;;5033894;28;20041;-95
2023/12/22 11:39:25;;;;;;;;;;;;;;;;;;;;;
2023/12/22 11:49:42;;;;;;;6.70;1.92;;;9.90;99.90;;;;;;3258093;22;20567;-92
2023/12/22 11:52:18;;;;;;;6.05;1.70;;;9.90;99.90;;;;;;5063318;28;20005;-93
2023/12/22 11:54:47;;;;;;;5.45;1.67;;;9.90;99.90;;;;;;5048075;28;20070;-94
2023/12/22 11:57:28;;;;;;;3.38;1.50;;;10.00;99.90;;;;;;5075723;28;20029;-94
2023/12/22 12:00:23;;;;;;;5.20;1.35;;;9.90;99.90;;;;;;5077885;28;20033;-96
2023/12/22 12:03:08;;;;;;;;;;;;;;;;;;;;;
2023/12/22 12:29:49;;;;;;;;;;;;;;;;;;;;;
2023/12/22 12:34:59;;;;;;;;;;;;;;;;;;;;;
2023/12/22 12:37:26;;;;;;;9.00;1.77;;;10.10;99.90;;;;;;5070286;28;20481;-95
2023/12/22 12:39:59;;;;;;;7.88;1.75;;;10.10;99.90;;;;;;5045980;28;20527;-93
2023/12/22 12:42:39;;;;;;;5.35;1.52;;;10.10;99.90;;;;;;5034229;28;20108;-92
2023/12/22 12:45:10;;;;;;;8.27;1.63;;;10.10;99.90;;;;;;5032751;28;20036;-91
2023/12/22 12:47:36;;;;;;;6.30;1.45;;;10.10;99.90;;;;;;5043295;28;20030;-95
2023/12/22 12:50:03;;;;;;;7.18;2.05;;;10.10;99.90;;;;;;5023277;28;20029;-94
2023/12/22 12:52:40;;;;;;;8.13;1.48;;;10.10;99.90;;;;;;5023990;28;20033;-94
2023/12/22 12:55:17;;;;;;;6.50;1.60;;;10.10;99.90;;;;;;5019565;28;20063;-95
2023/12/22 12:57:48;;;;;;;6.63;1.63;;;10.10;99.90;;;;;;5066354;28;20025;-95
2023/12/22 13:00:17;;;;;;;5.32;1.42;;;10.20;99.90;;;;;;5012227;28;20660;-95
2023/12/22 13:02:45;;;;;;;6.55;1.90;;;10.20;99.90;;;;;;5042372;28;20166;-94
2023/12/22 13:05:29;;;;;;;7.60;1.70;;;10.20;99.90;;;;;;5039034;28;20115;-95
2023/12/22 13:08:10;;;;;;;4.50;1.27;;;10.20;99.90;;;;;;5039047;28;20028;-95
2023/12/22 13:10:45;;;;;;;7.82;1.52;;;10.20;99.90;;;;;;5057211;28;20037;-93
2023/12/22 13:13:10;;;;;;;6.38;1.45;;;10.20;99.90;;;;;;5056459;28;20067;-94
2023/12/22 13:15:41;;;;;;;8.77;1.92;;;10.20;99.90;;;;;;5023682;28;20029;-94
2023/12/22 13:18:10;;;;;;;7.28;1.63;;;10.20;99.90;;;;;;5038603;28;20073;-95
2023/12/22 13:20:39;;;;;;;8.60;1.70;;;10.20;99.90;;;;;;5020989;28;20021;-92
2023/12/22 13:23:35;;;;;;;;;;;;;;;;;;;;;
2023/12/22 13:26:01;;;;;;;5.20;1.67;;;10.20;99.90;;;;;;5036704;28;20073;-95
2023/12/22 13:28:44;;;;;;;;;;;;;;;;;;;;;
2023/12/22 13:31:23;;;;;;;4.78;1.27;;;10.20;99.90;;;;;;5103568;28;20099;-93
2023/12/22 13:33:56;;;;;;;11.00;2.08;;;10.20;99.90;;;;;;5085144;28;20035;-93
2023/12/22 13:42:44;;;;;;;7.78;1.63;;;10.30;99.90;;;;;;5763755;22;20151;-92
2023/12/22 14:00:34;;;;;;;;;;;;;;;;;;;;;
2023/12/22 14:06:14;;;;;;;;;;;;;;;;;;;;;
2023/12/22 14:32:18;;;;;;;;;;;;;;;;;;;;;
2023/12/22 14:34:45;;;;;;;10.55;1.77;;;10.20;99.90;;;;;;5038118;28;20109;-91
2023/12/22 14:37:17;;;;;;;6.55;1.92;;;10.10;99.90;;;;;;5047512;28;20436;-90
2023/12/22 14:39:45;;;;;;;10.30;2.55;;;10.10;99.90;;;;;;5041724;28;20104;-94
2023/12/22 14:42:18;;;;;;;6.40;1.48;;;10.10;99.90;;;;;;5028166;28;20025;-93
2023/12/22 14:44:44;;;;;;;7.50;1.60;;;10.10;99.90;;;;;;5032074;28;20465;-92
2023/12/22 14:47:10;;;;;;;8.38;1.75;;;10.10;99.90;;;;;;5019016;28;20017;-92
2023/12/22 14:49:38;;;;;;;10.95;2.00;;;10.10;99.90;;;;;;5048147;28;20029;-92
2023/12/22 14:52:04;;;;;;;6.82;2.28;;;10.10;99.90;;;;;;5013845;28;20040;-93
2023/12/22 14:54:37;;;;;;;6.60;1.48;;;10.10;99.90;;;;;;5050168;28;20025;-93
2023/12/22 14:57:03;;;;;;;11.55;2.13;;;10.10;99.90;;;;;;5033138;28;20033;-92
2023/12/22 14:59:29;;;;;;;9.52;1.60;;;10.10;99.90;;;;;;5036355;28;20021;-92
2023/12/22 15:01:57;;;;;;;7.13;2.03;;;10.20;99.90;;;;;;5043004;28;20444;-93
2023/12/22 15:05:09;;;;;;;;;;;;;;;;;;;;;
2023/12/22 15:10:59;;;;;;;9.75;2.60;;;10.20;99.90;;;;;;5038639;28;20029;-93
2023/12/22 15:13:47;;;;;;;9.48;1.85;;;10.20;99.90;;;;;;5027213;28;20036;-95
2023/12/22 15:16:13;;;;;;;11.98;2.65;;;10.20;99.90;;;;;;5053253;28;20021;-93
2023/12/22 15:18:42;;;;;;;9.27;2.25;;;10.10;99.90;;;;;;5064335;28;20025;-91
2023/12/22 15:21:21;;;;;;;10.57;2.50;;;10.10;99.90;;;;;;5043484;28;20080;-91
2023/12/22 15:24:00;;;;;;;;;;;;;;;;;;;;;
2023/12/22 15:26:29;;;;;;;10.18;2.03;;;10.10;99.90;;;;;;5066693;28;20057;-91
2023/12/22 15:28:55;;;;;;;9.43;1.80;;;10.10;99.90;;;;;;5053186;28;20048;-95